Time,TemperatureF,DewpointF,PressureIn,WindDirection,WindDirectionDegrees,WindSpeedMPH,WindSpeedGustMPH,Humidity,HourlyPrecipIn,Conditions,Clouds,dailyrainin,SolarRadiationWatts/m^2,SoftwareType,DateUTC
2013-02-25 00:00:00,34.2,31.3,30.51,SE,133,0.0,1.0,89,0.00,SCT,OVC,0.00,0.0,WeatherDisplay:10.37,2013-02-25 00:00:00,
2013-02-25 00:05:00,34.5,31.8,30.51,SE,133,0.0,1.0,90,0.00,SCT,OVC,0.00,0.0,WeatherDisplay:10.37,2013-02-25 00:05:00,
2013-02-25 00:10:00,34.7,31.8,30.51,SE,133,0.0,0.0,89,0.00,SCT,OVC,0.00,0.0,WeatherDisplay:10.37,2013-02-25 00:10:00,
2013-02-25 00:15:00,34.1,30.9,30.51,SE,133,1.2,0.0,88,0.00,SCT,OVC,0.00,0.0,WeatherDisplay:10.37,2013-02-25 00:15:00,
2013-02-25 00:20:00,34.0,31.1,30.51,SE,132,0.0,0.0,89,0.00,SCT,OVC,0.00,0.0,WeatherDisplay:10.37,2013-02-25 00:20:00,
2013-02-25 00:25:00,33.8,30.9,30.51,SE,133,0.0,0.0,89,0.00,SCT,OVC,0.00,0.0,WeatherDisplay:10.37,2013-02-25 00:25:00,
2013-02-25 00:30:00,33.5,30.6,30.51,SE,133,0.0,0.0,89,0.00,SCT,OVC,0.00,0.0,WeatherDisplay:10.37,2013-02-25 00:30:00,
2013-02-25 00:35:00,33.3,30.4,30.51,SE,133,0.0,0.0,89,0.00,SCT,OVC,0.00,0.0,WeatherDisplay:10.37,2013-02-25 00:35:00,
2013-02-25 00:40:00,33.1,30.2,30.51,SE,133,0.0,0.0,89,0.00,SCT,OVC,0.00,0.0,WeatherDisplay:10.37,2013-02-25 00:40:00,
2013-02-25 00:45:00,32.9,30.0,30.51,SE,133,0.0,0.0,89,0.00,SCT,OVC,0.00,0.0,WeatherDisplay:10.37,2013-02-25 00:45:00,
2013-02-25 00:50:00,32.8,30.2,30.51,SE,133,0.0,0.0,90,0.00,SCT,OVC,0.00,0.0,WeatherDisplay:10.37,2013-02-25 00:50:00,
2013-02-25 00:55:00,33.0,30.7,30.51,SE,133,0.0,0.0,91,0.00,SCT,OVC,0.00,0.0,WeatherDisplay:10.37,2013-02-25 00:55:00,
2013-02-25 01:00:00,32.8,30.2,30.51,SE,133,0.0,0.0,90,0.00,SCT,OVC,0.00,0.0,WeatherDisplay:10.37,2013-02-25 01:00:00,
2013-02-25 01:05:00,32.7,30.4,30.51,SE,133,0.0,0.0,91,0.00,SCT,OVC,0.00,0.0,WeatherDisplay:10.37,2013-02-25 01:05:00,
2013-02-25 01:10:00,32.4,29.8,30.51,SE,133,0.0,0.0,90,0.00,SCT,OVC,0.00,0.0,WeatherDisplay:10.37,2013-02-25 01:10:00,
2013-02-25 01:15:00,31.7,28.9,30.51,SE,133,0.0,0.0,89,0.00,SCT,OVC,0.00,0.0,WeatherDisplay:10.37,2013-02-25 01:15:00,
2013-02-25 01:20:00,31.5,28.9,30.51,SE,132,0.0,0.0,90,0.00,SCT,OVC,0.00,0.0,WeatherDisplay:10.37,2013-02-25 01:20:00,
2013-02-25 01:25:00,31.4,29.1,30.51,SE,141,0.0,0.0,91,0.00,SCT,OVC,0.00,0.0,WeatherDisplay:10.37,2013-02-25 01:25:00,
2013-02-25 01:30:00,31.8,29.7,30.51,SE,140,0.0,1.0,92,0.00,SCT,OVC,0.00,0.0,WeatherDisplay:10.37,2013-02-25 01:30:00,
2013-02-25 01:35:00,32.5,30.7,30.51,SE,140,0.0,1.0,93,0.00,SCT,OVC,0.00,0.0,WeatherDisplay:10.37,2013-02-25 01:35:00,
2013-02-25 01:40:00,33.0,30.9,30.51,SE,142,0.0,0.0,92,0.00,SCT,OVC,0.00,0.0,WeatherDisplay:10.37,2013-02-25 01:40:00,
2013-02-25 01:45:00,33.3,31.2,30.51,SE,131,0.0,1.0,92,0.00,SCT,OVC,0.00,0.0,WeatherDisplay:10.37,2013-02-25 01:45:00,
2013-02-25 01:50:00,33.5,31.2,30.51,ESE,115,0.0,0.0,91,0.00,BKN,OVC,0.00,0.0,WeatherDisplay:10.37,2013-02-25 01:50:00,
2013-02-25 01:55:00,33.6,31.3,30.51,SE,136,0.0,0.0,91,0.00,BKN,OVC,0.00,0.0,WeatherDisplay:10.37,2013-02-25 01:55:00,
2013-02-25 02:00:00,33.5,30.9,30.51,SE,137,0.0,0.0,90,0.00,BKN,OVC,0.00,0.0,WeatherDisplay:10.37,2013-02-25 02:00:00,
2013-02-25 02:05:00,33.3,30.7,30.52,SE,137,0.0,0.0,90,0.00,SCT,OVC,0.00,0.0,WeatherDisplay:10.37,2013-02-25 02:05:00,
2013-02-25 02:10:00,33.2,30.6,30.52,SE,137,0.0,0.0,90,0.00,SCT,OVC,0.00,0.0,WeatherDisplay:10.37,2013-02-25 02:10:00,
2013-02-25 02:15:00,33.1,30.4,30.52,SE,137,0.0,0.0,90,0.00,SCT,OVC,0.00,0.0,WeatherDisplay:10.37,2013-02-25 02:15:00,
2013-02-25 02:20:00,32.7,30.1,30.52,SE,136,0.0,0.0,90,0.00,SCT,OVC,0.00,0.0,WeatherDisplay:10.37,2013-02-25 02:20:00,
2013-02-25 02:25:00,32.7,30.4,30.52,SE,136,0.0,0.0,91,0.00,SCT,OVC,0.00,0.0,WeatherDisplay:10.37,2013-02-25 02:25:00,
2013-02-25 02:30:00,32.6,30.3,30.51,SE,137,0.0,0.0,91,0.00,SCT,OVC,0.00,0.0,WeatherDisplay:10.37,2013-02-25 02:30:00,
2013-02-25 02:35:00,32.2,29.6,30.52,SE,136,0.0,0.0,90,0.00,SCT,OVC,0.00,0.0,WeatherDisplay:10.37,2013-02-25 02:35:00,
2013-02-25 02:40:00,31.8,29.2,30.52,SE,137,0.0,0.0,90,0.00,SCT,OVC,0.00,0.0,WeatherDisplay:10.37,2013-02-25 02:40:00,
2013-02-25 02:45:00,31.8,29.5,30.52,SE,137,0.0,0.0,91,0.00,SCT,OVC,0.00,0.0,WeatherDisplay:10.37,2013-02-25 02:45:00,
2013-02-25 02:50:00,31.6,29.3,30.52,SE,137,0.0,0.0,91,0.00,SCT,OVC,0.00,0.0,WeatherDisplay:10.37,2013-02-25 02:50:00,
2013-02-25 02:55:00,31.4,29.1,30.52,SE,137,0.0,0.0,91,0.00,SCT,OVC,0.00,0.0,WeatherDisplay:10.37,2013-02-25 02:55:00,
2013-02-25 03:00:00,31.1,28.8,30.52,SE,137,0.0,0.0,91,0.00,SCT,OVC,0.00,0.0,WeatherDisplay:10.37,2013-02-25 03:00:00,
2013-02-25 03:05:00,31.1,29.0,30.53,SE,137,0.0,0.0,92,0.00,OVC,,0.00,0.0,WeatherDisplay:10.37,2013-02-25 03:05:00,
2013-02-25 03:10:00,31.2,29.1,30.53,SE,137,0.0,0.0,92,0.00,OVC,,0.00,0.0,WeatherDisplay:10.37,2013-02-25 03:10:00,
2013-02-25 03:15:00,31.2,29.1,30.53,SE,137,0.0,0.0,92,0.00,OVC,,0.00,0.0,WeatherDisplay:10.37,2013-02-25 03:15:00,
2013-02-25 03:20:00,31.0,28.9,30.53,SE,137,0.0,0.0,92,0.00,OVC,,0.00,0.0,WeatherDisplay:10.37,2013-02-25 03:20:00,
2013-02-25 03:25:00,30.8,28.8,30.53,SE,136,0.0,0.0,92,0.00,OVC,,0.00,0.0,WeatherDisplay:10.37,2013-02-25 03:25:00,
2013-02-25 03:30:00,30.6,28.6,30.54,SE,137,0.0,0.0,92,0.00,OVC,,0.00,0.0,WeatherDisplay:10.37,2013-02-25 03:30:00,
2013-02-25 03:35:00,30.2,27.9,30.54,SE,137,0.0,0.0,91,0.00,OVC,,0.00,0.0,WeatherDisplay:10.37,2013-02-25 03:35:00,
2013-02-25 03:40:00,30.0,28.0,30.54,SE,136,0.0,0.0,92,0.00,OVC,,0.00,0.0,WeatherDisplay:10.37,2013-02-25 03:40:00,
2013-02-25 03:45:00,30.2,28.4,30.54,SE,137,0.0,0.0,93,0.00,OVC,,0.00,0.0,WeatherDisplay:10.37,2013-02-25 03:45:00,
2013-02-25 03:50:00,30.0,28.0,30.54,SE,136,0.0,0.0,92,0.00,BKN,OVC,0.00,0.0,WeatherDisplay:10.37,2013-02-25 03:50:00,
2013-02-25 03:55:00,29.8,27.8,30.54,SE,137,0.0,0.0,92,0.00,BKN,OVC,0.00,0.0,WeatherDisplay:10.37,2013-02-25 03:55:00,
2013-02-25 04:00:00,29.6,27.6,30.55,SE,136,0.0,0.0,92,0.00,BKN,OVC,0.00,0.0,WeatherDisplay:10.37,2013-02-25 04:00:00,
2013-02-25 04:05:00,29.2,27.2,30.55,SE,137,0.0,0.0,92,0.00,BKN,OVC,0.00,0.0,WeatherDisplay:10.37,2013-02-25 04:05:00,
2013-02-25 04:10:00,29.4,27.6,30.55,SE,137,0.0,0.0,93,0.00,BKN,OVC,0.00,0.0,WeatherDisplay:10.37,2013-02-25 04:10:00,
2013-02-25 04:15:00,29.8,28.3,30.55,SE,136,0.0,0.0,94,0.00,BKN,OVC,0.00,0.0,WeatherDisplay:10.37,2013-02-25 04:15:00,
2013-02-25 04:20:00,29.9,28.1,30.55,SE,137,0.0,0.0,93,0.00,SCT,OVC,0.00,0.0,WeatherDisplay:10.37,2013-02-25 04:20:00,
2013-02-25 04:25:00,29.8,28.0,30.55,SE,137,0.0,0.0,93,0.00,SCT,OVC,0.00,0.0,WeatherDisplay:10.37,2013-02-25 04:25:00,
2013-02-25 04:30:00,30.0,28.5,30.55,SE,137,0.0,0.0,94,0.00,SCT,OVC,0.00,0.0,WeatherDisplay:10.37,2013-02-25 04:30:00,
2013-02-25 04:35:00,30.4,28.9,30.55,SE,137,0.0,0.0,94,0.00,SCT,OVC,0.00,0.0,WeatherDisplay:10.37,2013-02-25 04:35:00,
2013-02-25 04:40:00,30.4,28.9,30.55,SE,137,0.0,0.0,94,0.00,SCT,OVC,0.00,0.0,WeatherDisplay:10.37,2013-02-25 04:40:00,
2013-02-25 04:45:00,30.3,28.8,30.55,SE,136,0.0,0.0,94,0.00,SCT,OVC,0.00,0.0,WeatherDisplay:10.37,2013-02-25 04:45:00,
2013-02-25 04:50:00,30.3,28.8,30.55,SE,137,0.0,0.0,94,0.00,SCT,OVC,0.00,0.0,WeatherDisplay:10.37,2013-02-25 04:50:00,
2013-02-25 04:55:00,30.3,28.8,30.55,SE,137,0.0,0.0,94,0.00,SCT,OVC,0.00,0.0,WeatherDisplay:10.37,2013-02-25 04:55:00,
2013-02-25 05:00:00,30.4,28.8,30.55,SE,137,0.0,0.0,94,0.00,SCT,OVC,0.00,0.0,WeatherDisplay:10.37,2013-02-25 05:00:00,
2013-02-25 05:05:00,30.5,29.0,30.55,SE,136,0.0,0.0,94,0.00,SCT,OVC,0.00,0.0,WeatherDisplay:10.37,2013-02-25 05:05:00,
2013-02-25 05:10:00,30.5,29.0,30.55,SE,137,0.0,0.0,94,0.00,SCT,OVC,0.00,0.0,WeatherDisplay:10.37,2013-02-25 05:10:00,
2013-02-25 05:15:00,30.5,29.0,30.55,SE,136,0.0,0.0,94,0.00,SCT,OVC,0.00,0.0,WeatherDisplay:10.37,2013-02-25 05:15:00,
2013-02-25 05:20:00,30.5,29.0,30.55,SE,136,0.0,0.0,94,0.00,OVC,,0.00,0.0,WeatherDisplay:10.37,2013-02-25 05:20:00,
2013-02-25 05:25:00,30.5,29.0,30.55,SE,137,0.0,0.0,94,0.00,OVC,,0.00,0.0,WeatherDisplay:10.37,2013-02-25 05:25:00,
2013-02-25 05:30:00,30.3,28.5,30.55,SE,137,0.0,0.0,93,0.00,OVC,,0.00,0.0,WeatherDisplay:10.37,2013-02-25 05:30:00,
2013-02-25 05:35:00,30.0,28.2,30.54,SE,136,0.0,0.0,93,0.00,BKN,OVC,0.00,0.0,WeatherDisplay:10.37,2013-02-25 05:35:00,
2013-02-25 05:40:00,29.8,28.0,30.54,SE,137,0.0,0.0,93,0.00,BKN,OVC,0.00,0.0,WeatherDisplay:10.37,2013-02-25 05:40:00,
2013-02-25 05:45:00,29.4,27.6,30.54,SE,137,0.0,0.0,93,0.00,BKN,OVC,0.00,0.0,WeatherDisplay:10.37,2013-02-25 05:45:00,
2013-02-25 05:50:00,29.2,27.4,30.54,SE,137,0.0,0.0,93,0.00,BKN,OVC,0.00,0.0,WeatherDisplay:10.37,2013-02-25 05:50:00,
2013-02-25 05:55:00,28.9,27.1,30.55,SE,136,0.0,0.0,93,0.00,BKN,OVC,0.00,0.0,WeatherDisplay:10.37,2013-02-25 05:55:00,
2013-02-25 06:01:00,28.7,26.9,30.55,SE,137,0.0,0.0,93,0.00,BKN,OVC,0.00,0.0,WeatherDisplay:10.37,2013-02-25 06:01:00,
2013-02-25 06:06:00,28.9,27.4,30.55,SE,136,0.0,0.0,94,0.00,BKN,OVC,0.00,0.0,WeatherDisplay:10.37,2013-02-25 06:06:00,
2013-02-25 06:11:00,29.0,27.5,30.56,SE,137,0.0,0.0,94,0.00,BKN,OVC,0.00,0.0,WeatherDisplay:10.37,2013-02-25 06:11:00,
2013-02-25 06:16:00,28.7,26.9,30.55,SE,136,0.0,0.0,93,0.00,BKN,OVC,0.00,0.0,WeatherDisplay:10.37,2013-02-25 06:16:00,
2013-02-25 06:21:00,28.1,26.3,30.56,SE,136,0.0,0.0,93,0.00,SCT,OVC,0.00,0.0,WeatherDisplay:10.37,2013-02-25 06:21:00,
2013-02-25 06:26:00,27.7,25.7,30.56,SE,137,0.0,0.0,92,0.00,SCT,OVC,0.00,0.0,WeatherDisplay:10.37,2013-02-25 06:26:00,
2013-02-25 06:31:00,27.5,25.7,30.56,SE,137,0.0,0.0,93,0.00,SCT,OVC,0.00,0.0,WeatherDisplay:10.37,2013-02-25 06:31:00,
2013-02-25 06:36:00,27.7,25.9,30.56,SE,136,0.0,0.0,93,0.00,SCT,OVC,0.00,0.0,WeatherDisplay:10.37,2013-02-25 06:36:00,
2013-02-25 06:41:00,27.5,25.7,30.56,SE,137,0.0,0.0,93,0.00,SCT,OVC,0.00,0.0,WeatherDisplay:10.37,2013-02-25 06:41:00,
2013-02-25 06:46:00,27.2,25.4,30.56,SE,137,0.0,0.0,93,0.00,BKN,OVC,0.00,0.0,WeatherDisplay:10.37,2013-02-25 06:46:00,
2013-02-25 06:51:00,27.4,25.9,30.56,SE,136,0.0,0.0,94,0.00,BKN,OVC,0.00,0.0,WeatherDisplay:10.37,2013-02-25 06:51:00,
2013-02-25 06:56:00,27.6,26.1,30.56,SE,137,0.0,0.0,94,0.00,BKN,OVC,0.00,0.0,WeatherDisplay:10.37,2013-02-25 06:56:00,
2013-02-25 07:01:00,27.8,26.3,30.56,SE,137,0.0,0.0,94,0.00,BKN,OVC,0.00,0.0,WeatherDisplay:10.37,2013-02-25 07:01:00,
2013-02-25 07:06:00,27.9,26.4,30.56,SE,137,0.0,0.0,94,0.00,BKN,OVC,0.00,0.0,WeatherDisplay:10.37,2013-02-25 07:06:00,
2013-02-25 07:11:00,27.8,26.3,30.56,SE,137,0.0,0.0,94,0.00,BKN,OVC,0.00,0.0,WeatherDisplay:10.37,2013-02-25 07:11:00,
2013-02-25 07:16:00,27.1,25.3,30.57,SE,137,0.0,0.0,93,0.00,BKN,OVC,0.00,0.0,WeatherDisplay:10.37,2013-02-25 07:16:00,
2013-02-25 07:21:00,27.3,25.8,30.57,SE,136,0.0,0.0,94,0.00,BKN,OVC,0.00,0.0,WeatherDisplay:10.37,2013-02-25 07:21:00,
2013-02-25 07:26:00,27.3,25.8,30.57,SE,136,0.0,0.0,94,0.00,BKN,OVC,0.00,0.0,WeatherDisplay:10.37,2013-02-25 07:26:00,
2013-02-25 07:32:00,27.5,26.0,30.57,SE,136,0.0,0.0,94,0.00,BKN,OVC,0.00,0.0,WeatherDisplay:10.37,2013-02-25 07:32:00,
2013-02-25 07:37:00,27.4,25.9,30.57,SE,137,0.0,0.0,94,0.00,BKN,OVC,0.00,0.0,WeatherDisplay:10.37,2013-02-25 07:37:00,
2013-02-25 07:42:00,27.6,26.1,30.57,SE,137,0.0,0.0,94,0.00,BKN,OVC,0.00,0.0,WeatherDisplay:10.37,2013-02-25 07:42:00,
2013-02-25 07:47:00,27.9,26.4,30.58,SE,136,0.0,0.0,94,0.00,BKN,OVC,0.00,0.0,WeatherDisplay:10.37,2013-02-25 07:47:00,
2013-02-25 07:52:00,27.9,26.4,30.58,SE,137,0.0,0.0,94,0.00,BKN,OVC,0.00,0.0,WeatherDisplay:10.37,2013-02-25 07:52:00,
2013-02-25 07:57:00,27.7,26.2,30.58,SE,137,1.2,0.0,94,0.00,BKN,OVC,0.00,0.0,WeatherDisplay:10.37,2013-02-25 07:57:00,
2013-02-25 08:02:00,27.8,26.3,30.58,SE,136,0.0,0.0,94,0.00,SCT,OVC,0.00,0.0,WeatherDisplay:10.37,2013-02-25 08:02:00,
2013-02-25 08:07:00,28.1,26.6,30.58,SE,137,0.0,0.0,94,0.00,SCT,OVC,0.00,0.0,WeatherDisplay:10.37,2013-02-25 08:07:00,
2013-02-25 08:12:00,28.3,27.1,30.59,SE,137,0.0,0.0,95,0.00,SCT,OVC,0.00,0.0,WeatherDisplay:10.37,2013-02-25 08:12:00,
2013-02-25 08:17:00,28.6,27.4,30.59,SE,137,0.0,0.0,95,0.00,SCT,OVC,0.00,0.0,WeatherDisplay:10.37,2013-02-25 08:17:00,
2013-02-25 08:22:00,28.7,27.4,30.59,SE,137,0.0,0.0,95,0.00,SCT,OVC,0.00,0.0,WeatherDisplay:10.37,2013-02-25 08:22:00,
2013-02-25 08:27:00,28.9,27.6,30.59,SE,136,0.0,0.0,95,0.00,SCT,OVC,0.00,0.0,WeatherDisplay:10.37,2013-02-25 08:27:00,
2013-02-25 08:32:00,29.0,27.7,30.59,SE,137,0.0,0.0,95,0.00,SCT,OVC,0.00,0.0,WeatherDisplay:10.37,2013-02-25 08:32:00,
2013-02-25 08:37:00,29.2,27.9,30.59,SE,136,0.0,0.0,95,0.00,SCT,OVC,0.00,0.0,WeatherDisplay:10.37,2013-02-25 08:37:00,
2013-02-25 08:42:00,29.5,28.2,30.59,SE,136,0.0,0.0,95,0.00,SCT,OVC,0.00,0.0,WeatherDisplay:10.37,2013-02-25 08:42:00,
2013-02-25 08:47:00,29.7,28.4,30.59,SE,136,0.0,0.0,95,0.00,SCT,OVC,0.00,0.0,WeatherDisplay:10.37,2013-02-25 08:47:00,
2013-02-25 08:52:00,30.0,28.7,30.59,SE,137,0.0,0.0,95,0.00,SCT,OVC,0.00,0.0,WeatherDisplay:10.37,2013-02-25 08:52:00,
2013-02-25 08:57:00,30.6,29.3,30.59,SE,137,0.0,0.0,95,0.00,SCT,OVC,0.00,0.0,WeatherDisplay:10.37,2013-02-25 08:57:00,
2013-02-25 09:02:00,31.0,29.7,30.59,SE,136,0.0,0.0,95,0.00,SCT,OVC,0.00,0.0,WeatherDisplay:10.37,2013-02-25 09:02:00,
2013-02-25 09:07:00,31.3,30.0,30.59,SE,137,0.0,0.0,95,0.00,SCT,OVC,0.00,0.0,WeatherDisplay:10.37,2013-02-25 09:07:00,
2013-02-25 09:12:00,31.6,30.3,30.59,SE,137,0.0,0.0,95,0.00,SCT,OVC,0.00,0.0,WeatherDisplay:10.37,2013-02-25 09:12:00,
2013-02-25 09:17:00,32.0,30.7,30.59,SE,137,0.0,0.0,95,0.00,FEW,OVC,0.00,0.0,WeatherDisplay:10.37,2013-02-25 09:17:00,
2013-02-25 09:22:00,32.3,31.0,30.59,SE,137,0.0,0.0,95,0.00,FEW,OVC,0.00,0.0,WeatherDisplay:10.37,2013-02-25 09:22:00,
2013-02-25 09:27:00,32.6,31.3,30.60,SE,137,0.0,0.0,95,0.00,FEW,OVC,0.00,0.0,WeatherDisplay:10.37,2013-02-25 09:27:00,
2013-02-25 09:32:00,32.9,31.6,30.60,SE,136,0.0,0.0,95,0.00,FEW,OVC,0.00,0.0,WeatherDisplay:10.37,2013-02-25 09:32:00,
2013-02-25 09:37:00,33.4,31.9,30.59,SE,137,0.0,0.0,94,0.00,FEW,OVC,0.00,0.0,WeatherDisplay:10.37,2013-02-25 09:37:00,
2013-02-25 09:42:00,33.8,32.0,30.60,SE,136,0.0,0.0,93,0.00,FEW,OVC,0.00,0.0,WeatherDisplay:10.37,2013-02-25 09:42:00,
2013-02-25 09:47:00,34.5,32.4,30.59,SE,137,0.0,0.0,92,0.00,SCT,OVC,0.00,0.0,WeatherDisplay:10.37,2013-02-25 09:47:00,
2013-02-25 09:52:00,35.5,33.1,30.59,SE,136,0.0,0.0,91,0.00,SCT,OVC,0.00,0.0,WeatherDisplay:10.37,2013-02-25 09:52:00,
2013-02-25 09:57:00,36.8,34.1,30.59,SE,137,0.0,0.0,90,0.00,SCT,OVC,0.00,0.0,WeatherDisplay:10.37,2013-02-25 09:57:00,
2013-02-25 10:02:00,38.5,35.3,30.59,SE,136,1.0,0.0,88,0.00,SCT,OVC,0.00,0.0,WeatherDisplay:10.37,2013-02-25 10:02:00,
2013-02-25 10:07:00,40.4,35.6,30.60,SE,137,0.0,0.0,83,0.00,SCT,OVC,0.00,0.0,WeatherDisplay:10.37,2013-02-25 10:07:00,
2013-02-25 10:12:00,40.9,34.9,30.60,SE,137,1.2,0.0,79,0.00,SCT,OVC,0.00,0.0,WeatherDisplay:10.37,2013-02-25 10:12:00,
2013-02-25 10:17:00,40.4,34.7,30.60,SE,136,0.0,0.0,80,0.00,SCT,OVC,0.00,0.0,WeatherDisplay:10.37,2013-02-25 10:17:00,
2013-02-25 10:22:00,41.2,35.8,30.60,SE,136,0.0,0.0,81,0.00,SCT,OVC,0.00,0.0,WeatherDisplay:10.37,2013-02-25 10:22:00,
2013-02-25 10:27:00,41.2,35.2,30.59,WNW,287,1.2,0.0,79,0.00,SCT,OVC,0.00,0.0,WeatherDisplay:10.37,2013-02-25 10:27:00,
2013-02-25 10:32:00,41.7,36.0,30.60,WNW,287,1.2,1.2,80,0.00,SCT,OVC,0.00,0.0,WeatherDisplay:10.37,2013-02-25 10:32:00,
2013-02-25 10:37:00,41.9,35.2,30.60,WNW,287,0.0,0.0,77,0.00,SCT,OVC,0.00,0.0,WeatherDisplay:10.37,2013-02-25 10:37:00,
2013-02-25 10:42:00,42.1,35.4,30.60,WNW,287,1.2,0.0,77,0.00,SCT,OVC,0.00,0.0,WeatherDisplay:10.37,2013-02-25 10:42:00,
2013-02-25 10:47:00,42.0,36.0,30.60,WNW,286,0.0,0.0,79,0.00,SCT,OVC,0.00,0.0,WeatherDisplay:10.37,2013-02-25 10:47:00,
2013-02-25 10:52:00,43.0,36.6,30.60,SE,131,1.2,1.2,78,0.00,SCT,OVC,0.00,0.0,WeatherDisplay:10.37,2013-02-25 10:52:00,
2013-02-25 10:57:00,44.1,36.7,30.60,SE,145,2.3,2.3,75,0.00,SCT,OVC,0.00,0.0,WeatherDisplay:10.37,2013-02-25 10:57:00,
2013-02-25 11:02:00,44.8,36.7,30.60,South,186,2.3,2.3,73,0.00,BKN,OVC,0.00,0.0,WeatherDisplay:10.37,2013-02-25 11:02:00,
2013-02-25 11:07:00,45.0,36.9,30.60,SE,128,2.3,2.3,73,0.00,BKN,OVC,0.00,0.0,WeatherDisplay:10.37,2013-02-25 11:07:00,
2013-02-25 11:12:00,45.3,36.8,30.60,SSE,150,2.3,2.3,72,0.00,BKN,OVC,0.00,0.0,WeatherDisplay:10.37,2013-02-25 11:12:00,
2013-02-25 11:17:00,45.6,37.1,30.60,SSE,160,1.2,0.0,72,0.00,BKN,OVC,0.00,0.0,WeatherDisplay:10.37,2013-02-25 11:17:00,
2013-02-25 11:22:00,46.2,37.3,30.60,ESE,113,2.3,2.3,71,0.00,BKN,OVC,0.00,0.0,WeatherDisplay:10.37,2013-02-25 11:22:00,
2013-02-25 11:27:00,46.0,36.8,30.60,SSE,150,2.3,2.3,70,0.00,BKN,OVC,0.00,0.0,WeatherDisplay:10.37,2013-02-25 11:27:00,
2013-02-25 11:32:00,46.0,37.1,30.60,East,90,2.3,2.3,71,0.00,BKN,OVC,0.00,0.0,WeatherDisplay:10.37,2013-02-25 11:32:00,
2013-02-25 11:37:00,46.5,37.2,30.60,WSW,238,1.2,1.2,70,0.00,BKN,OVC,0.00,0.0,WeatherDisplay:10.37,2013-02-25 11:37:00,
2013-02-25 11:42:00,47.1,37.8,30.60,SE,139,1.2,1.2,70,0.00,BKN,OVC,0.00,0.0,WeatherDisplay:10.37,2013-02-25 11:42:00,
2013-02-25 11:47:00,47.2,37.2,30.60,WNW,288,2.3,2.3,68,0.00,BKN,OVC,0.00,0.0,WeatherDisplay:10.37,2013-02-25 11:47:00,
2013-02-25 11:52:00,47.1,37.1,30.61,SE,143,1.2,1.2,68,0.00,BKN,OVC,0.00,0.0,WeatherDisplay:10.37,2013-02-25 11:52:00,
2013-02-25 11:57:00,47.2,36.4,30.61,SE,136,3.5,3.5,66,0.00,BKN,OVC,0.00,0.0,WeatherDisplay:10.37,2013-02-25 11:57:00,
2013-02-25 12:04:00,47.2,36.4,30.61,ENE,58,2.3,2.3,66,0.00,BKN,OVC,0.00,0.0,WeatherDisplay:10.37,2013-02-25 12:04:00,
2013-02-25 12:09:00,47.3,36.9,30.60,SW,214,3.5,3.5,67,0.00,BKN,OVC,0.00,0.0,WeatherDisplay:10.37,2013-02-25 12:09:00,
2013-02-25 12:14:00,47.6,37.2,30.61,SE,145,1.2,1.2,67,0.00,BKN,OVC,0.00,0.0,WeatherDisplay:10.37,2013-02-25 12:14:00,
2013-02-25 12:19:00,47.9,37.1,30.60,West,266,2.3,2.3,66,0.00,BKN,OVC,0.00,0.0,WeatherDisplay:10.37,2013-02-25 12:19:00,
2013-02-25 12:24:00,48.1,36.9,30.60,ESE,116,3.0,3.0,65,0.00,BKN,OVC,0.00,0.0,WeatherDisplay:10.37,2013-02-25 12:24:00,
2013-02-25 12:29:00,47.9,36.3,30.60,SE,138,3.5,3.5,64,0.00,BKN,OVC,0.00,0.0,WeatherDisplay:10.37,2013-02-25 12:29:00,
2013-02-25 12:34:00,47.9,36.3,30.60,WNW,283,1.2,1.2,64,0.00,BKN,OVC,0.00,0.0,WeatherDisplay:10.37,2013-02-25 12:34:00,
2013-02-25 12:39:00,48.3,37.1,30.60,NE,36,1.2,1.2,65,0.00,BKN,OVC,0.00,0.0,WeatherDisplay:10.37,2013-02-25 12:39:00,
2013-02-25 12:44:00,48.7,36.7,30.60,South,169,2.0,2.0,63,0.00,BKN,OVC,0.00,0.0,WeatherDisplay:10.37,2013-02-25 12:44:00,
2013-02-25 12:49:00,49.0,36.9,30.60,SE,125,1.2,1.2,63,0.00,BKN,OVC,0.00,0.0,WeatherDisplay:10.37,2013-02-25 12:49:00,
2013-02-25 12:54:00,48.7,36.3,30.60,WNW,285,2.3,2.3,62,0.00,BKN,OVC,0.00,0.0,WeatherDisplay:10.37,2013-02-25 12:54:00,
2013-02-25 13:00:00,48.7,36.7,30.60,ESE,119,2.3,2.3,63,0.00,BKN,OVC,0.00,0.0,WeatherDisplay:10.37,2013-02-25 13:00:00,
2013-02-25 13:05:00,49.0,37.3,30.60,WNW,292,3.5,3.5,64,0.00,SCT,OVC,0.00,0.0,WeatherDisplay:10.37,2013-02-25 13:05:00,
2013-02-25 13:10:00,48.8,36.8,30.60,SE,142,1.0,4.0,63,0.00,SCT,OVC,0.00,0.0,WeatherDisplay:10.37,2013-02-25 13:10:00,
2013-02-25 13:15:00,48.7,37.1,30.60,SW,228,2.3,2.3,64,0.00,SCT,OVC,0.00,0.0,WeatherDisplay:10.37,2013-02-25 13:15:00,
2013-02-25 13:20:00,48.6,37.0,30.60,SSE,155,3.5,3.5,64,0.00,SCT,OVC,0.00,0.0,WeatherDisplay:10.37,2013-02-25 13:20:00,
2013-02-25 13:25:00,48.6,37.0,30.60,SE,126,2.0,2.0,64,0.00,SCT,OVC,0.00,0.0,WeatherDisplay:10.37,2013-02-25 13:25:00,
2013-02-25 13:30:00,48.7,37.1,30.60,SE,145,3.5,3.5,64,0.00,SCT,OVC,0.00,0.0,WeatherDisplay:10.37,2013-02-25 13:30:00,
2013-02-25 13:35:00,48.9,37.3,30.60,SW,226,2.3,2.3,64,0.00,SCT,OVC,0.00,0.0,WeatherDisplay:10.37,2013-02-25 13:35:00,
2013-02-25 13:40:00,49.3,37.6,30.60,SSE,148,1.2,1.2,64,0.00,SCT,OVC,0.00,0.0,WeatherDisplay:10.37,2013-02-25 13:40:00,
2013-02-25 13:45:00,49.4,36.5,30.60,ESE,117,3.5,3.5,61,0.00,SCT,OVC,0.00,0.0,WeatherDisplay:10.37,2013-02-25 13:45:00,
2013-02-25 13:50:00,49.4,36.5,30.60,East,83,1.2,1.2,61,0.00,SCT,OVC,0.00,0.0,WeatherDisplay:10.37,2013-02-25 13:50:00,
2013-02-25 13:55:00,49.4,36.9,30.59,SSE,152,1.2,1.2,62,0.00,SCT,OVC,0.00,0.0,WeatherDisplay:10.37,2013-02-25 13:55:00,
2013-02-25 14:00:00,49.5,37.0,30.60,West,270,1.2,1.2,62,0.00,SCT,OVC,0.00,0.0,WeatherDisplay:10.37,2013-02-25 14:00:00,
2013-02-25 14:06:00,49.4,36.9,30.59,SE,142,3.5,3.5,62,0.00,SCT,OVC,0.00,0.0,WeatherDisplay:10.37,2013-02-25 14:06:00,
2013-02-25 14:11:00,49.4,36.9,30.59,SSE,166,2.3,2.3,62,0.00,SCT,OVC,0.00,0.0,WeatherDisplay:10.37,2013-02-25 14:11:00,
2013-02-25 14:16:00,49.4,36.9,30.59,South,176,3.5,3.5,62,0.00,SCT,OVC,0.00,0.0,WeatherDisplay:10.37,2013-02-25 14:16:00,
2013-02-25 14:21:00,49.6,35.8,30.58,SE,134,2.3,2.3,59,0.00,SCT,OVC,0.00,0.0,WeatherDisplay:10.37,2013-02-25 14:21:00,
2013-02-25 14:26:00,49.6,35.8,30.58,SE,143,2.3,2.3,59,0.00,SCT,OVC,0.00,0.0,WeatherDisplay:10.37,2013-02-25 14:26:00,
2013-02-25 14:31:00,49.6,36.7,30.58,East,86,3.5,3.5,61,0.00,SCT,OVC,0.00,0.0,WeatherDisplay:10.37,2013-02-25 14:31:00,
2013-02-25 14:36:00,49.7,36.8,30.59,ESE,115,1.2,1.2,61,0.00,SCT,OVC,0.00,0.0,WeatherDisplay:10.37,2013-02-25 14:36:00,
2013-02-25 14:41:00,50.1,37.2,30.59,SE,138,2.0,2.0,61,0.00,SCT,OVC,0.00,0.0,WeatherDisplay:10.37,2013-02-25 14:41:00,
2013-02-25 14:46:00,50.1,36.7,30.59,SE,124,1.2,1.2,60,0.00,SCT,OVC,0.00,0.0,WeatherDisplay:10.37,2013-02-25 14:46:00,
2013-02-25 14:51:00,49.8,36.5,30.59,SE,129,1.2,1.2,60,0.00,SCT,OVC,0.00,0.0,WeatherDisplay:10.37,2013-02-25 14:51:00,
2013-02-25 14:56:00,49.7,35.9,30.59,SE,135,2.3,2.3,59,0.00,SCT,OVC,0.00,0.0,WeatherDisplay:10.37,2013-02-25 14:56:00,
2013-02-25 15:01:00,49.8,36.5,30.59,SE,131,1.2,1.2,60,0.00,FEW,OVC,0.00,0.0,WeatherDisplay:10.37,2013-02-25 15:01:00,
2013-02-25 15:06:00,49.9,36.6,30.59,WSW,240,1.2,1.2,60,0.00,FEW,OVC,0.00,0.0,WeatherDisplay:10.37,2013-02-25 15:06:00,
2013-02-25 15:11:00,50.0,36.7,30.59,SE,141,2.3,2.3,60,0.00,FEW,OVC,0.00,0.0,WeatherDisplay:10.37,2013-02-25 15:11:00,
2013-02-25 15:16:00,49.8,36.9,30.59,WNW,301,2.3,2.3,61,0.00,FEW,OVC,0.00,0.0,WeatherDisplay:10.37,2013-02-25 15:16:00,
2013-02-25 15:21:00,49.7,36.4,30.59,ESE,105,3.5,3.5,60,0.00,FEW,OVC,0.00,0.0,WeatherDisplay:10.37,2013-02-25 15:21:00,
2013-02-25 15:26:00,49.4,36.5,30.59,East,101,1.0,1.0,61,0.00,FEW,OVC,0.00,0.0,WeatherDisplay:10.37,2013-02-25 15:26:00,
2013-02-25 15:31:00,49.4,36.1,30.59,SE,136,3.5,3.5,60,0.00,FEW,OVC,0.00,0.0,WeatherDisplay:10.37,2013-02-25 15:31:00,
2013-02-25 15:36:00,49.0,35.7,30.59,SSE,158,2.3,2.3,60,0.00,FEW,OVC,0.00,0.0,WeatherDisplay:10.37,2013-02-25 15:36:00,
2013-02-25 15:41:00,48.8,35.5,30.59,ESE,111,2.0,2.0,60,0.00,FEW,OVC,0.00,0.0,WeatherDisplay:10.37,2013-02-25 15:41:00,
2013-02-25 15:46:00,48.4,36.0,30.59,West,259,3.5,3.5,62,0.00,FEW,OVC,0.00,0.0,WeatherDisplay:10.37,2013-02-25 15:46:00,
2013-02-25 15:51:00,48.1,35.7,30.59,SE,137,2.3,2.3,62,0.00,FEW,OVC,0.00,0.0,WeatherDisplay:10.37,2013-02-25 15:51:00,
2013-02-25 15:56:00,47.9,35.9,30.59,East,94,0.0,0.0,63,0.00,FEW,OVC,0.00,0.0,WeatherDisplay:10.37,2013-02-25 15:56:00,
2013-02-25 16:01:00,47.6,35.6,30.59,SE,134,2.3,2.3,63,0.00,FEW,OVC,0.00,0.0,WeatherDisplay:10.37,2013-02-25 16:01:00,
2013-02-25 16:06:00,47.4,35.8,30.59,SE,135,1.2,0.0,64,0.00,FEW,OVC,0.00,0.0,WeatherDisplay:10.37,2013-02-25 16:06:00,
2013-02-25 16:11:00,47.1,35.1,30.59,ESE,121,3.5,3.5,63,0.00,FEW,OVC,0.00,0.0,WeatherDisplay:10.37,2013-02-25 16:11:00,
2013-02-25 16:16:00,46.6,35.5,30.59,SE,133,2.3,2.3,65,0.00,FEW,OVC,0.00,0.0,WeatherDisplay:10.37,2013-02-25 16:16:00,
2013-02-25 16:21:00,46.3,35.6,30.60,SE,135,2.3,0.0,66,0.00,FEW,OVC,0.00,0.0,WeatherDisplay:10.37,2013-02-25 16:21:00,
2013-02-25 16:26:00,46.3,35.6,30.59,ESE,117,1.2,0.0,66,0.00,FEW,OVC,0.00,0.0,WeatherDisplay:10.37,2013-02-25 16:26:00,
2013-02-25 16:31:00,46.2,35.1,30.60,SSE,158,1.2,0.0,65,0.00,FEW,OVC,0.00,0.0,WeatherDisplay:10.37,2013-02-25 16:31:00,
2013-02-25 16:36:00,46.1,35.0,30.59,East,96,1.2,0.0,65,0.00,FEW,OVC,0.00,0.0,WeatherDisplay:10.37,2013-02-25 16:36:00,
2013-02-25 16:41:00,46.0,34.9,30.60,WNW,291,1.2,1.2,65,0.00,FEW,OVC,0.00,0.0,WeatherDisplay:10.37,2013-02-25 16:41:00,
2013-02-25 16:46:00,45.7,35.0,30.60,SE,136,1.2,0.0,66,0.00,FEW,OVC,0.00,0.0,WeatherDisplay:10.37,2013-02-25 16:46:00,
2013-02-25 16:51:00,45.4,34.7,30.60,SE,142,1.2,1.2,66,0.00,FEW,OVC,0.00,0.0,WeatherDisplay:10.37,2013-02-25 16:51:00,
2013-02-25 16:57:00,45.2,34.9,30.60,ESE,120,1.2,0.0,67,0.00,FEW,OVC,0.00,0.0,WeatherDisplay:10.37,2013-02-25 16:57:00,
2013-02-25 17:02:00,45.0,34.7,30.60,ESE,117,1.2,0.0,67,0.00,FEW,OVC,0.00,0.0,WeatherDisplay:10.37,2013-02-25 17:02:00,
2013-02-25 17:07:00,44.7,35.9,30.60,ESE,122,1.2,1.2,71,0.00,FEW,OVC,0.00,0.0,WeatherDisplay:10.37,2013-02-25 17:07:00,
2013-02-25 17:12:00,44.1,36.7,30.60,SE,134,2.3,2.3,75,0.00,FEW,OVC,0.00,0.0,WeatherDisplay:10.37,2013-02-25 17:12:00,
2013-02-25 17:17:00,43.7,36.6,30.60,SE,129,1.2,1.2,76,0.00,FEW,OVC,0.00,0.0,WeatherDisplay:10.37,2013-02-25 17:17:00,
2013-02-25 17:22:00,43.3,36.6,30.60,ESE,109,1.2,1.2,77,0.00,FEW,OVC,0.00,0.0,WeatherDisplay:10.37,2013-02-25 17:22:00,
2013-02-25 17:27:00,42.7,36.3,30.60,ESE,118,0.0,0.0,78,0.00,FEW,OVC,0.00,0.0,WeatherDisplay:10.37,2013-02-25 17:27:00,
2013-02-25 17:32:00,42.1,36.4,30.60,SE,127,1.2,1.2,80,0.00,FEW,OVC,0.00,0.0,WeatherDisplay:10.37,2013-02-25 17:32:00,
2013-02-25 17:37:00,41.5,36.1,30.60,ESE,122,1.2,1.2,81,0.00,FEW,OVC,0.00,0.0,WeatherDisplay:10.37,2013-02-25 17:37:00,
2013-02-25 17:42:00,41.1,36.0,30.60,ESE,123,1.2,1.2,82,0.00,FEW,OVC,0.00,0.0,WeatherDisplay:10.37,2013-02-25 17:42:00,
2013-02-25 17:47:00,40.7,35.6,30.61,ESE,122,0.0,0.0,82,0.00,FEW,OVC,0.00,0.0,WeatherDisplay:10.37,2013-02-25 17:47:00,
2013-02-25 17:52:00,40.4,35.3,30.61,ESE,122,0.0,0.0,82,0.00,FEW,OVC,0.00,0.0,WeatherDisplay:10.37,2013-02-25 17:52:00,
2013-02-25 17:57:00,40.0,35.3,30.61,ESE,122,0.0,0.0,83,0.00,FEW,OVC,0.00,0.0,WeatherDisplay:10.37,2013-02-25 17:57:00,
2013-02-25 18:02:00,39.8,35.7,30.61,ESE,122,0.0,0.0,85,0.00,FEW,OVC,0.00,0.0,WeatherDisplay:10.37,2013-02-25 18:02:00,
2013-02-25 18:07:00,39.4,35.3,30.62,ESE,122,0.0,0.0,85,0.00,FEW,OVC,0.00,0.0,WeatherDisplay:10.37,2013-02-25 18:07:00,
2013-02-25 18:12:00,39.1,34.7,30.62,ESE,123,0.0,0.0,84,0.00,FEW,OVC,0.00,0.0,WeatherDisplay:10.37,2013-02-25 18:12:00,
2013-02-25 18:17:00,38.9,34.8,30.62,ESE,123,0.0,0.0,85,0.00,FEW,OVC,0.00,0.0,WeatherDisplay:10.37,2013-02-25 18:17:00,
2013-02-25 18:22:00,38.3,34.5,30.62,ESE,122,0.0,0.0,86,0.00,FEW,OVC,0.00,0.0,WeatherDisplay:10.37,2013-02-25 18:22:00,
2013-02-25 18:27:00,37.7,33.3,30.62,ESE,123,0.0,0.0,84,0.00,FEW,OVC,0.00,0.0,WeatherDisplay:10.37,2013-02-25 18:27:00,
2013-02-25 18:32:00,36.5,31.8,30.62,ESE,122,0.0,0.0,83,0.00,FEW,OVC,0.00,0.0,WeatherDisplay:10.37,2013-02-25 18:32:00,
2013-02-25 18:37:00,36.0,31.9,30.62,ESE,122,0.0,0.0,85,0.00,FEW,OVC,0.00,0.0,WeatherDisplay:10.37,2013-02-25 18:37:00,
2013-02-25 18:42:00,35.6,31.5,30.62,ESE,123,0.0,0.0,85,0.00,FEW,OVC,0.00,0.0,WeatherDisplay:10.37,2013-02-25 18:42:00,
2013-02-25 18:47:00,35.4,31.6,30.62,ESE,123,0.0,0.0,86,0.00,CLR,OVC,0.00,0.0,WeatherDisplay:10.37,2013-02-25 18:47:00,
2013-02-25 18:52:00,35.3,31.8,30.62,ESE,122,0.0,0.0,87,0.00,CLR,OVC,0.00,0.0,WeatherDisplay:10.37,2013-02-25 18:52:00,
2013-02-25 18:57:00,34.5,30.7,30.62,ESE,122,0.0,0.0,86,0.00,CLR,OVC,0.00,0.0,WeatherDisplay:10.37,2013-02-25 18:57:00,
2013-02-25 19:02:00,35.0,32.4,30.62,ESE,122,0.0,0.0,90,0.00,CLR,OVC,0.00,0.0,WeatherDisplay:10.37,2013-02-25 19:02:00,
2013-02-25 19:07:00,35.2,32.6,30.63,ESE,122,0.0,0.0,90,0.00,CLR,OVC,0.00,0.0,WeatherDisplay:10.37,2013-02-25 19:07:00,
2013-02-25 19:12:00,35.2,32.3,30.63,ESE,122,0.0,0.0,89,0.00,CLR,OVC,0.00,0.0,WeatherDisplay:10.37,2013-02-25 19:12:00,
2013-02-25 19:17:00,34.9,32.0,30.63,ESE,122,0.0,0.0,89,0.00,CLR,OVC,0.00,0.0,WeatherDisplay:10.37,2013-02-25 19:17:00,
2013-02-25 19:22:00,34.7,31.8,30.63,ESE,122,0.0,0.0,89,0.00,CLR,OVC,0.00,0.0,WeatherDisplay:10.37,2013-02-25 19:22:00,
2013-02-25 19:27:00,34.6,31.7,30.63,ESE,122,0.0,0.0,89,0.00,CLR,OVC,0.00,0.0,WeatherDisplay:10.37,2013-02-25 19:27:00,
2013-02-25 19:32:00,34.4,31.5,30.63,ESE,123,0.0,0.0,89,0.00,CLR,OVC,0.00,0.0,WeatherDisplay:10.37,2013-02-25 19:32:00,
2013-02-25 19:37:00,34.1,31.2,30.63,ESE,122,0.0,0.0,89,0.00,CLR,OVC,0.00,0.0,WeatherDisplay:10.37,2013-02-25 19:37:00,
2013-02-25 19:42:00,33.7,30.8,30.63,ESE,122,0.0,0.1,89,0.00,CLR,OVC,0.00,0.0,WeatherDisplay:10.37,2013-02-25 19:42:00,
2013-02-25 19:47:00,33.5,30.9,30.63,ESE,122,0.0,0.0,90,0.00,CLR,OVC,0.00,0.0,WeatherDisplay:10.37,2013-02-25 19:47:00,
2013-02-25 19:52:00,33.4,30.8,30.63,SSE,160,0.0,0.0,90,0.00,CLR,OVC,0.00,0.0,WeatherDisplay:10.37,2013-02-25 19:52:00,
2013-02-25 19:57:00,33.5,31.2,30.63,SSE,160,0.0,0.0,91,0.00,CLR,OVC,0.00,0.0,WeatherDisplay:10.37,2013-02-25 19:57:00,
2013-02-25 20:02:00,33.6,31.3,30.64,SSE,160,0.0,0.0,91,0.00,CLR,OVC,0.00,0.0,WeatherDisplay:10.37,2013-02-25 20:02:00,
2013-02-25 20:07:00,33.6,31.3,30.64,SSE,160,0.0,0.0,91,0.00,CLR,OVC,0.00,0.0,WeatherDisplay:10.37,2013-02-25 20:07:00,
2013-02-25 20:12:00,33.6,31.3,30.64,SSE,160,0.0,0.0,91,0.00,CLR,OVC,0.00,0.0,WeatherDisplay:10.37,2013-02-25 20:12:00,
2013-02-25 20:17:00,33.3,30.7,30.64,SSE,160,0.0,0.0,90,0.00,CLR,OVC,0.00,0.0,WeatherDisplay:10.37,2013-02-25 20:17:00,
2013-02-25 20:22:00,33.3,31.0,30.64,SSE,159,0.0,0.0,91,0.00,CLR,OVC,0.00,0.0,WeatherDisplay:10.37,2013-02-25 20:22:00,
2013-02-25 20:27:00,32.9,30.3,30.64,SSE,159,0.0,0.0,90,0.00,CLR,OVC,0.00,0.0,WeatherDisplay:10.37,2013-02-25 20:27:00,
2013-02-25 20:32:00,32.2,29.3,30.64,SSE,159,0.0,0.0,89,0.00,CLR,OVC,0.00,0.0,WeatherDisplay:10.37,2013-02-25 20:32:00,
2013-02-25 20:37:00,31.9,29.3,30.64,SSE,159,0.0,0.0,90,0.00,CLR,OVC,0.00,0.0,WeatherDisplay:10.37,2013-02-25 20:37:00,
2013-02-25 20:42:00,31.8,29.2,30.64,SSE,159,0.0,0.0,90,0.00,CLR,OVC,0.00,0.0,WeatherDisplay:10.37,2013-02-25 20:42:00,
2013-02-25 20:47:00,31.5,28.9,30.64,SSE,159,0.0,0.0,90,0.00,FEW,OVC,0.00,0.0,WeatherDisplay:10.37,2013-02-25 20:47:00,
2013-02-25 20:52:00,31.5,29.2,30.64,SSE,159,0.0,0.0,91,0.00,FEW,OVC,0.00,0.0,WeatherDisplay:10.37,2013-02-25 20:52:00,
2013-02-25 20:57:00,31.6,29.5,30.64,SSE,159,0.0,0.0,92,0.00,FEW,OVC,0.00,0.0,WeatherDisplay:10.37,2013-02-25 20:57:00,
2013-02-25 21:02:00,31.5,29.2,30.64,SSE,159,0.0,0.0,91,0.00,BKN,OVC,0.00,0.0,WeatherDisplay:10.37,2013-02-25 21:02:00,
2013-02-25 21:07:00,31.3,29.0,30.64,SSE,159,0.0,0.0,91,0.00,BKN,OVC,0.00,0.0,WeatherDisplay:10.37,2013-02-25 21:07:00,
2013-02-25 21:12:00,31.2,28.9,30.64,SSE,160,0.0,0.0,91,0.00,BKN,OVC,0.00,0.0,WeatherDisplay:10.37,2013-02-25 21:12:00,
2013-02-25 21:17:00,31.2,29.1,30.64,SSE,159,0.0,0.0,92,0.00,BKN,OVC,0.00,0.0,WeatherDisplay:10.37,2013-02-25 21:17:00,
2013-02-25 21:22:00,31.1,29.0,30.64,SSE,159,0.0,0.0,92,0.00,BKN,OVC,0.00,0.0,WeatherDisplay:10.37,2013-02-25 21:22:00,
2013-02-25 21:27:00,31.4,29.6,30.64,SSE,159,0.0,0.0,93,0.00,BKN,OVC,0.00,0.0,WeatherDisplay:10.37,2013-02-25 21:27:00,
2013-02-25 21:32:00,31.3,29.2,30.65,SE,126,0.0,0.0,92,0.00,BKN,OVC,0.00,0.0,WeatherDisplay:10.37,2013-02-25 21:32:00,
2013-02-25 21:37:00,31.1,29.0,30.64,SE,126,0.0,0.0,92,0.00,BKN,OVC,0.00,0.0,WeatherDisplay:10.37,2013-02-25 21:37:00,
2013-02-25 21:42:00,30.6,28.3,30.64,SE,126,0.0,0.0,91,0.00,BKN,OVC,0.00,0.0,WeatherDisplay:10.37,2013-02-25 21:42:00,
2013-02-25 21:47:00,30.6,28.6,30.65,SE,125,0.0,0.0,92,0.00,BKN,OVC,0.00,0.0,WeatherDisplay:10.37,2013-02-25 21:47:00,
2013-02-25 21:52:00,30.5,28.2,30.65,SE,126,0.0,0.0,91,0.00,BKN,OVC,0.00,0.0,WeatherDisplay:10.37,2013-02-25 21:52:00,
2013-02-25 21:57:00,30.5,28.5,30.65,SE,125,1.2,0.0,92,0.00,BKN,OVC,0.00,0.0,WeatherDisplay:10.37,2013-02-25 21:57:00,
2013-02-25 22:02:00,30.5,28.5,30.65,SE,126,0.0,0.0,92,0.00,BKN,OVC,0.00,0.0,WeatherDisplay:10.37,2013-02-25 22:02:00,
2013-02-25 22:07:00,30.5,28.5,30.65,SE,126,0.0,0.0,92,0.00,BKN,OVC,0.00,0.0,WeatherDisplay:10.37,2013-02-25 22:07:00,
2013-02-25 22:12:00,30.4,28.4,30.65,SE,126,0.0,0.0,92,0.00,BKN,OVC,0.00,0.0,WeatherDisplay:10.37,2013-02-25 22:12:00,
2013-02-25 22:17:00,30.5,28.7,30.65,SE,125,0.0,0.0,93,0.00,BKN,OVC,0.00,0.0,WeatherDisplay:10.37,2013-02-25 22:17:00,
2013-02-25 22:22:00,30.6,28.8,30.65,SE,125,0.0,0.0,93,0.00,BKN,OVC,0.00,0.0,WeatherDisplay:10.37,2013-02-25 22:22:00,
2013-02-25 22:27:00,30.6,28.8,30.65,SE,126,0.0,0.0,93,0.00,BKN,OVC,0.00,0.0,WeatherDisplay:10.37,2013-02-25 22:27:00,
2013-02-25 22:32:00,30.5,28.5,30.65,SE,125,0.0,0.0,92,0.00,BKN,OVC,0.00,0.0,WeatherDisplay:10.37,2013-02-25 22:32:00,
2013-02-25 22:37:00,30.4,28.4,30.65,SE,125,0.0,0.0,92,0.00,BKN,OVC,0.00,0.0,WeatherDisplay:10.37,2013-02-25 22:37:00,
2013-02-25 22:42:00,30.2,28.2,30.65,SE,126,0.0,0.0,92,0.00,BKN,OVC,0.00,0.0,WeatherDisplay:10.37,2013-02-25 22:42:00,
2013-02-25 22:47:00,30.1,28.1,30.65,SE,125,0.0,0.0,92,0.00,BKN,OVC,0.00,0.0,WeatherDisplay:10.37,2013-02-25 22:47:00,
2013-02-25 22:52:00,30.0,28.0,30.65,SE,126,0.0,0.0,92,0.00,BKN,OVC,0.00,0.0,WeatherDisplay:10.37,2013-02-25 22:52:00,
2013-02-25 22:58:00,30.0,28.2,30.65,SE,126,0.0,0.0,93,0.00,BKN,OVC,0.00,0.0,WeatherDisplay:10.37,2013-02-25 22:58:00,
2013-02-25 23:03:00,30.0,28.2,30.65,SE,125,0.0,0.0,93,0.00,BKN,OVC,0.00,0.0,WeatherDisplay:10.37,2013-02-25 23:03:00,
2013-02-25 23:08:00,29.8,27.8,30.65,SE,125,0.0,0.0,92,0.00,BKN,OVC,0.00,0.0,WeatherDisplay:10.37,2013-02-25 23:08:00,
2013-02-25 23:13:00,29.7,27.7,30.65,SE,125,0.0,0.0,92,0.00,BKN,OVC,0.00,0.0,WeatherDisplay:10.37,2013-02-25 23:13:00,
2013-02-25 23:18:00,29.6,27.8,30.65,SE,125,0.0,0.0,93,0.00,BKN,OVC,0.00,0.0,WeatherDisplay:10.37,2013-02-25 23:18:00,
2013-02-25 23:23:00,29.4,27.4,30.66,SE,126,0.0,0.0,92,0.00,BKN,OVC,0.00,0.0,WeatherDisplay:10.37,2013-02-25 23:23:00,
2013-02-25 23:28:00,29.3,27.3,30.66,SE,126,0.0,0.0,92,0.00,BKN,OVC,0.00,0.0,WeatherDisplay:10.37,2013-02-25 23:28:00,
2013-02-25 23:33:00,29.4,27.6,30.66,SE,126,0.0,0.0,93,0.00,BKN,OVC,0.00,0.0,WeatherDisplay:10.37,2013-02-25 23:33:00,
2013-02-25 23:38:00,29.5,27.7,30.66,SE,126,0.0,0.0,93,0.00,BKN,OVC,0.00,0.0,WeatherDisplay:10.37,2013-02-25 23:38:00,
2013-02-25 23:43:00,29.7,28.2,30.66,SE,125,0.0,0.0,94,0.00,BKN,OVC,0.00,0.0,WeatherDisplay:10.37,2013-02-25 23:43:00,
2013-02-25 23:48:00,29.8,28.3,30.66,SE,126,0.0,0.0,94,0.00,BKN,OVC,0.00,0.0,WeatherDisplay:10.37,2013-02-25 23:48:00,
2013-02-25 23:53:00,29.9,28.4,30.66,SE,125,0.0,0.0,94,0.00,BKN,OVC,0.00,0.0,WeatherDisplay:10.37,2013-02-25 23:53:00,
2013-02-25 23:58:00,30.4,28.9,30.66,SE,127,0.0,0.0,94,0.00,BKN,OVC,0.00,0.0,WeatherDisplay:10.37,2013-02-25 23:58:00,